createdAt,value
2023-07-26T00:01:50.240Z,77.31
2023-07-26T00:04:16.873Z,77.49
2023-07-26T00:06:43.539Z,77.40
2023-07-26T00:09:10.278Z,77.32
2023-07-26T00:11:37.784Z,77.37
2023-07-26T00:14:06.506Z,77.27
2023-07-26T00:16:34.789Z,77.42
2023-07-26T00:19:02.315Z,77.16
2023-07-26T00:21:29.590Z,77.45
2023-07-26T00:23:56.325Z,77.29
2023-07-26T00:26:23.055Z,77.30
2023-07-26T00:28:49.676Z,77.48
2023-07-26T00:31:16.351Z,77.54
2023-07-26T00:33:43.030Z,77.44
2023-07-26T00:36:10.566Z,77.57
2023-07-26T00:38:37.393Z,77.63
2023-07-26T00:41:04.132Z,77.40
2023-07-26T00:43:30.896Z,77.28
2023-07-26T00:45:57.749Z,77.41
2023-07-26T00:48:25.834Z,77.36
2023-07-26T00:50:53.010Z,77.43
2023-07-26T00:53:20.259Z,77.32
2023-07-26T00:55:47.052Z,77.41
2023-07-26T00:58:15.629Z,77.42
2023-07-26T01:00:45.988Z,77.31
2023-07-26T01:03:13.967Z,77.30
2023-07-26T01:06:28.943Z,77.11
2023-07-26T01:09:10.771Z,77.06
2023-07-26T01:11:50.018Z,77.50
2023-07-26T01:14:34.468Z,77.29
2023-07-26T01:17:01.176Z,77.17
2023-07-26T01:19:27.860Z,77.17
2023-07-26T01:21:54.533Z,77.32
2023-07-26T01:24:21.276Z,77.32
2023-07-26T01:26:47.978Z,77.28
2023-07-26T01:29:14.730Z,77.33
2023-07-26T01:31:42.060Z,76.90
2023-07-26T01:34:10.386Z,77.23
2023-07-26T01:36:38.159Z,77.14
2023-07-26T01:39:08.612Z,77.33
2023-07-26T01:41:36.600Z,77.52
2023-07-26T01:44:05.040Z,77.52
2023-07-26T01:46:31.693Z,77.49
2023-07-26T01:48:58.646Z,77.29
2023-07-26T01:51:25.428Z,77.58
2023-07-26T01:53:52.075Z,77.78
2023-07-26T01:56:18.744Z,77.62
2023-07-26T01:58:45.399Z,77.80
2023-07-26T02:01:12.138Z,77.39
2023-07-26T02:03:38.810Z,77.28
2023-07-26T02:06:05.542Z,77.41
2023-07-26T02:08:32.201Z,77.64
2023-07-26T02:10:59.329Z,77.19
2023-07-26T02:13:26.018Z,77.43
2023-07-26T02:15:52.653Z,77.19
2023-07-26T02:18:19.450Z,77.31
2023-07-26T02:20:46.112Z,77.61
2023-07-26T02:23:12.776Z,77.69
2023-07-26T02:25:39.410Z,77.75
2023-07-26T02:28:06.128Z,77.66
2023-07-26T02:30:32.756Z,77.08
2023-07-26T02:32:59.479Z,77.28
2023-07-26T02:35:26.184Z,77.33
2023-07-26T02:37:52.830Z,77.36
2023-07-26T02:40:19.447Z,77.41
2023-07-26T02:42:46.066Z,77.53
2023-07-26T02:45:12.634Z,77.34
2023-07-26T02:47:39.269Z,77.26
2023-07-26T02:50:06.384Z,77.39
2023-07-26T02:52:34.395Z,77.42
2023-07-26T02:55:02.250Z,77.41
2023-07-26T02:57:28.916Z,77.32
2023-07-26T02:59:55.647Z,77.24
2023-07-26T03:02:23.804Z,77.41
2023-07-26T03:04:50.832Z,77.24
2023-07-26T03:07:17.444Z,77.24
2023-07-26T03:09:44.134Z,77.27
2023-07-26T03:12:10.823Z,77.45
2023-07-26T03:14:42.056Z,77.47
2023-07-26T03:19:41.701Z,77.55
2023-07-26T03:22:08.467Z,77.69
2023-07-26T03:24:35.182Z,77.76
2023-07-26T03:27:02.146Z,77.71
2023-07-26T03:29:28.822Z,77.56
2023-07-26T03:31:55.535Z,77.31
2023-07-26T03:34:22.218Z,77.51
2023-07-26T03:36:48.922Z,77.43
2023-07-26T03:39:15.644Z,77.62
2023-07-26T03:41:42.315Z,77.95
2023-07-26T03:44:08.977Z,78.04
2023-07-26T03:46:35.771Z,78.18
2023-07-26T03:49:04.976Z,78.08
2023-07-26T03:51:31.671Z,78.37
2023-07-26T03:53:58.265Z,78.25
2023-07-26T03:56:25.062Z,78.35
2023-07-26T03:58:51.784Z,78.36
2023-07-26T04:01:18.485Z,78.37
2023-07-26T04:03:45.322Z,78.35
2023-07-26T04:06:13.838Z,78.23
2023-07-26T04:08:43.563Z,78.46
2023-07-26T04:11:12.941Z,78.47
2023-07-26T04:13:39.537Z,78.58
2023-07-26T04:16:18.457Z,78.77
2023-07-26T04:18:46.126Z,78.61
2023-07-26T04:21:18.709Z,78.70
2023-07-26T04:23:47.294Z,78.71
2023-07-26T04:26:14.349Z,78.60
2023-07-26T04:28:41.080Z,78.68
2023-07-26T04:31:07.828Z,78.77
2023-07-26T04:33:34.598Z,78.48
2023-07-26T04:36:01.469Z,78.26
2023-07-26T04:38:28.397Z,78.42
2023-07-26T04:40:55.097Z,78.37
2023-07-26T04:43:21.896Z,78.21
2023-07-26T04:45:51.003Z,77.54
2023-07-26T04:48:19.570Z,77.46
2023-07-26T04:50:48.603Z,77.16
2023-07-26T04:53:16.301Z,76.68
2023-07-26T04:55:49.436Z,76.78
2023-07-26T04:58:16.621Z,76.42
2023-07-26T05:00:43.474Z,76.27
2023-07-26T05:03:11.169Z,75.72
2023-07-26T05:05:38.602Z,75.67
2023-07-26T05:08:07.547Z,75.16
2023-07-26T05:10:35.187Z,75.32
2023-07-26T05:13:02.027Z,75.24
2023-07-26T05:15:28.845Z,75.11
2023-07-26T05:17:55.795Z,74.63
2023-07-26T05:20:22.407Z,75.09
2023-07-26T05:22:49.069Z,74.61
2023-07-26T05:25:15.792Z,75.03
2023-07-26T05:27:42.491Z,75.00
2023-07-26T05:30:09.633Z,74.70
2023-07-26T05:32:36.413Z,74.62
2023-07-26T05:35:04.180Z,74.46
2023-07-26T05:37:35.716Z,74.32
2023-07-26T05:40:04.236Z,74.54
2023-07-26T05:42:31.029Z,74.52
2023-07-26T05:44:57.741Z,74.51
2023-07-26T05:47:25.213Z,74.24
2023-07-26T05:49:51.918Z,74.15
2023-07-26T05:52:20.340Z,73.81
2023-07-26T05:54:47.302Z,73.90
2023-07-26T05:57:14.025Z,74.12
2023-07-26T05:59:40.758Z,73.66
2023-07-26T06:02:07.400Z,73.93
2023-07-26T06:04:36.213Z,74.29
2023-07-26T06:07:05.034Z,74.04
2023-07-26T06:09:35.276Z,74.15
2023-07-26T06:12:02.537Z,74.36
2023-07-26T06:14:30.265Z,74.62
2023-07-26T06:16:57.240Z,74.88
2023-07-26T06:19:24.293Z,75.11
2023-07-26T06:21:56.833Z,75.29
2023-07-26T06:24:25.688Z,75.55
2023-07-26T06:26:55.761Z,75.72
2023-07-26T06:29:22.765Z,75.74
2023-07-26T06:31:49.953Z,75.10
2023-07-26T06:34:16.815Z,74.81
2023-07-26T06:36:43.500Z,75.11
2023-07-26T06:39:10.312Z,75.40
2023-07-26T06:41:36.954Z,75.53
2023-07-26T06:44:04.215Z,75.96
2023-07-26T06:46:30.942Z,76.16
2023-07-26T06:48:57.625Z,76.10
2023-07-26T06:51:24.241Z,75.98
2023-07-26T06:53:50.999Z,75.73
2023-07-26T06:56:21.768Z,75.59
2023-07-26T06:58:50.269Z,75.78
2023-07-26T07:01:18.635Z,75.85
2023-07-26T07:03:46.269Z,75.77
2023-07-26T07:06:15.516Z,75.64
2023-07-26T07:08:42.236Z,75.89
2023-07-26T07:11:08.854Z,75.82
2023-07-26T07:13:37.400Z,75.74
2023-07-26T07:16:05.395Z,75.23
2023-07-26T07:18:33.341Z,74.61
2023-07-26T07:21:02.179Z,74.70
2023-07-26T07:23:31.098Z,74.66
2023-07-26T07:25:58.037Z,73.89
2023-07-26T07:28:25.573Z,73.54
2023-07-26T07:30:52.727Z,73.34
2023-07-26T07:33:19.579Z,72.98
2023-07-26T07:35:46.432Z,72.79
2023-07-26T07:38:13.089Z,72.34
2023-07-26T07:40:39.780Z,71.75
2023-07-26T07:43:06.488Z,71.09
2023-07-26T07:45:33.193Z,70.10
2023-07-26T07:47:59.895Z,69.74
2023-07-26T07:50:26.635Z,69.52
2023-07-26T07:52:53.265Z,69.37
2023-07-26T07:55:20.018Z,68.82
2023-07-26T07:57:46.721Z,68.99
2023-07-26T08:00:14.015Z,69.15
2023-07-26T08:02:41.144Z,68.95
2023-07-26T08:05:08.153Z,68.38
2023-07-26T08:07:34.819Z,68.46
2023-07-26T08:10:01.692Z,68.75
2023-07-26T08:12:28.335Z,68.50
2023-07-26T08:14:54.991Z,68.75
2023-07-26T08:17:21.627Z,69.34
2023-07-26T08:19:48.323Z,69.11
2023-07-26T08:22:15.031Z,69.28
2023-07-26T08:24:42.212Z,69.30
2023-07-26T08:27:09.484Z,68.89
2023-07-26T08:29:36.193Z,68.73
2023-07-26T08:32:02.992Z,68.74
2023-07-26T08:34:29.638Z,68.79
2023-07-26T08:36:56.307Z,68.43
2023-07-26T08:39:34.320Z,68.47
2023-07-26T08:42:04.517Z,67.93
2023-07-26T08:44:34.259Z,68.34
2023-07-26T08:47:01.907Z,68.57
2023-07-26T08:49:30.054Z,67.81
2023-07-26T08:51:58.943Z,67.42
2023-07-26T08:54:25.663Z,66.90
2023-07-26T08:56:53.751Z,66.70
2023-07-26T08:59:20.371Z,65.60
2023-07-26T09:02:01.832Z,64.72
2023-07-26T09:04:32.745Z,63.32
2023-07-26T09:07:07.109Z,61.91
2023-07-26T09:09:36.016Z,61.48
2023-07-26T09:12:04.239Z,60.41
2023-07-26T09:14:33.293Z,58.61
2023-07-26T09:17:05.127Z,56.02
2023-07-26T09:19:40.199Z,55.06
2023-07-26T09:22:09.905Z,53.01
2023-07-26T09:24:41.235Z,51.20
2023-07-26T09:27:12.169Z,51.11
2023-07-26T09:29:42.281Z,50.15
2023-07-26T09:32:09.574Z,49.86
2023-07-26T09:34:36.501Z,48.82
2023-07-26T09:37:03.714Z,48.58
2023-07-26T09:39:33.209Z,47.74
2023-07-26T09:42:07.937Z,48.43
2023-07-26T09:44:37.031Z,48.47
2023-07-26T09:47:04.372Z,48.30
2023-07-26T09:49:32.214Z,47.65
2023-07-26T09:54:35.909Z,46.97
2023-07-26T09:57:07.551Z,47.32
2023-07-26T09:59:40.327Z,47.93
2023-07-26T10:02:12.303Z,48.53
2023-07-26T10:04:52.162Z,48.96
2023-07-26T10:07:19.581Z,48.85
2023-07-26T10:09:48.898Z,48.61
2023-07-26T10:12:16.444Z,48.76
2023-07-26T10:14:44.212Z,48.46
2023-07-26T10:17:14.409Z,47.63
2023-07-26T10:19:45.189Z,48.00
2023-07-26T10:22:12.681Z,48.58
2023-07-26T10:24:43.465Z,49.39
2023-07-26T10:27:11.348Z,50.18
2023-07-26T10:29:38.152Z,51.14
2023-07-26T10:32:08.287Z,51.19
2023-07-26T10:34:35.579Z,51.39
2023-07-26T10:37:17.443Z,52.46
2023-07-26T10:39:45.282Z,52.53
2023-07-26T10:42:30.688Z,52.78
2023-07-26T10:45:02.908Z,53.13
2023-07-26T10:47:30.903Z,52.93
2023-07-26T10:50:07.433Z,52.97
2023-07-26T10:52:38.950Z,52.69
2023-07-26T10:55:23.918Z,52.88
2023-07-26T10:57:50.862Z,52.38
2023-07-26T11:00:23.947Z,51.88
2023-07-26T11:03:01.215Z,52.04
2023-07-26T11:05:30.657Z,51.74
2023-07-26T11:08:09.185Z,52.08
2023-07-26T11:10:39.180Z,52.06
2023-07-26T11:13:19.501Z,51.90
2023-07-26T11:16:15.730Z,52.06
2023-07-26T11:18:44.248Z,51.71
2023-07-26T11:21:17.986Z,51.61
2023-07-26T11:23:45.328Z,51.83
2023-07-26T11:26:12.001Z,50.87
2023-07-26T11:28:39.380Z,49.28
2023-07-26T11:31:06.927Z,49.15
2023-07-26T11:33:44.899Z,49.53
2023-07-26T11:36:21.195Z,49.78
2023-07-26T11:38:49.205Z,49.27
2023-07-26T11:41:20.087Z,49.59
2023-07-26T11:43:48.514Z,50.26
2023-07-26T11:46:15.311Z,53.43
2023-07-26T11:48:45.825Z,58.34
2023-07-26T11:51:12.589Z,59.52
2023-07-26T11:53:46.160Z,59.87
2023-07-26T11:56:16.108Z,58.89
2023-07-26T11:58:43.655Z,57.67
2023-07-26T12:01:10.536Z,58.16
2023-07-26T12:03:37.891Z,59.10
2023-07-26T12:06:08.872Z,60.31
2023-07-26T12:08:39.443Z,61.69
2023-07-26T12:11:07.629Z,62.06
2023-07-26T12:13:37.793Z,62.39
2023-07-26T12:16:05.529Z,63.03
2023-07-26T12:18:33.458Z,62.70
2023-07-26T12:21:14.272Z,62.56
2023-07-26T12:24:04.481Z,63.39
2023-07-26T12:26:36.342Z,63.58
2023-07-26T12:29:06.587Z,61.88
2023-07-26T12:31:36.773Z,61.60
2023-07-26T12:34:12.894Z,61.99
2023-07-26T12:36:42.317Z,61.78
2023-07-26T12:39:10.987Z,61.61
2023-07-26T12:41:43.577Z,60.52
2023-07-26T12:44:11.596Z,60.65
2023-07-26T12:47:11.297Z,61.42
2023-07-26T12:49:28.294Z,61.38
2023-07-26T12:51:55.435Z,61.60
2023-07-26T12:54:25.004Z,60.67
2023-07-26T12:56:53.426Z,60.24
2023-07-26T12:59:20.187Z,60.66
2023-07-26T13:01:46.940Z,59.99
2023-07-26T13:04:13.746Z,60.56
2023-07-26T13:06:40.785Z,60.29
2023-07-26T13:09:08.807Z,60.30
2023-07-26T13:11:35.571Z,60.10
2023-07-26T13:14:02.742Z,60.20
2023-07-26T13:16:32.766Z,60.48
2023-07-26T13:19:04.954Z,60.44
2023-07-26T13:21:32.833Z,59.86
2023-07-26T13:24:00.160Z,59.82
2023-07-26T13:26:29.242Z,59.04
2023-07-26T13:28:55.869Z,58.40
2023-07-26T13:31:23.183Z,58.27
2023-07-26T13:33:51.820Z,57.38
2023-07-26T13:36:23.288Z,57.54
2023-07-26T13:38:50.305Z,56.81
2023-07-26T13:41:17.048Z,57.67
2023-07-26T13:43:43.593Z,57.59
2023-07-26T13:46:24.280Z,58.37
2023-07-26T13:48:56.973Z,58.69
2023-07-26T13:51:23.692Z,59.42
2023-07-26T13:53:50.278Z,59.89
2023-07-26T13:56:17.001Z,60.82
2023-07-26T13:58:44.031Z,60.85
2023-07-26T14:01:12.201Z,60.62
2023-07-26T14:03:38.882Z,61.29
2023-07-26T14:06:06.247Z,61.66
2023-07-26T14:08:32.891Z,60.91
2023-07-26T14:11:00.495Z,60.59
2023-07-26T14:13:27.312Z,60.71
2023-07-26T14:16:00.764Z,60.80
2023-07-26T14:18:34.512Z,61.32
2023-07-26T14:21:01.305Z,60.52
2023-07-26T14:23:31.995Z,60.87
2023-07-26T14:26:00.474Z,61.63
2023-07-26T14:28:28.268Z,60.56
2023-07-26T14:30:56.037Z,60.69
2023-07-26T14:33:22.884Z,60.07
2023-07-26T14:35:49.504Z,60.30
2023-07-26T14:38:16.148Z,60.57
2023-07-26T14:40:43.282Z,60.25
2023-07-26T14:43:09.902Z,59.87
2023-07-26T14:45:36.518Z,60.06
2023-07-26T14:48:03.589Z,59.92
2023-07-26T14:50:30.214Z,59.96
2023-07-26T14:52:56.828Z,59.73
2023-07-26T14:55:23.689Z,59.43
2023-07-26T14:57:50.379Z,58.97
2023-07-26T15:00:17.229Z,59.12
2023-07-26T15:02:44.067Z,58.78
2023-07-26T15:05:10.875Z,58.35
2023-07-26T15:07:38.749Z,58.74
2023-07-26T15:10:08.090Z,58.43
2023-07-26T15:12:35.085Z,58.39
2023-07-26T15:15:01.972Z,57.28
2023-07-26T15:17:28.615Z,57.17
2023-07-26T15:19:56.513Z,57.31
2023-07-26T15:22:24.538Z,56.94
2023-07-26T15:24:51.244Z,56.90
2023-07-26T15:27:18.687Z,56.53
2023-07-26T15:29:45.424Z,56.29
2023-07-26T15:32:15.312Z,55.76
2023-07-26T15:34:42.372Z,55.75
2023-07-26T15:37:09.110Z,55.81
2023-07-26T15:39:35.755Z,55.91
2023-07-26T15:49:36.415Z,56.12
2023-07-26T15:52:05.638Z,55.94
2023-07-26T15:54:32.788Z,56.10
2023-07-26T15:56:59.410Z,56.30
2023-07-26T15:59:26.148Z,56.09
2023-07-26T16:01:52.937Z,55.30
2023-07-26T16:19:54.043Z,55.10
2023-07-26T16:22:08.854Z,55.54
2023-07-26T16:24:35.931Z,55.73
2023-07-26T16:27:02.763Z,56.28
2023-07-26T16:29:29.498Z,56.55
2023-07-26T16:31:56.321Z,57.08
2023-07-26T16:34:22.991Z,56.97
2023-07-26T16:36:49.602Z,56.85
2023-07-26T16:39:16.330Z,57.07
2023-07-26T16:41:44.231Z,57.29
2023-07-26T16:44:11.264Z,57.30
2023-07-26T16:46:57.772Z,57.62
2023-07-26T16:49:24.481Z,57.96
2023-07-26T16:51:51.211Z,58.14
2023-07-26T16:54:17.876Z,58.45
2023-07-26T16:56:44.558Z,58.76
2023-07-26T16:59:11.272Z,59.11
2023-07-26T17:01:38.076Z,59.61
2023-07-26T17:04:05.171Z,60.26
2023-07-26T17:06:32.201Z,60.46
2023-07-26T17:08:59.373Z,60.80
2023-07-26T17:11:26.108Z,61.00
2023-07-26T17:13:52.717Z,61.81
2023-07-26T17:16:19.384Z,62.44
2023-07-26T17:18:47.970Z,63.27
2023-07-26T17:21:15.934Z,63.25
2023-07-26T17:23:43.510Z,63.53
2023-07-26T17:26:10.739Z,63.54
2023-07-26T17:28:37.723Z,63.71
2023-07-26T17:31:04.557Z,63.30
2023-07-26T17:33:32.539Z,63.41
2023-07-26T17:36:00.369Z,63.82
2023-07-26T17:38:27.703Z,64.06
2023-07-26T17:41:05.282Z,64.03
2023-07-26T17:43:33.884Z,63.65
2023-07-26T17:46:00.568Z,63.76
2023-07-26T17:48:28.349Z,64.33
2023-07-26T17:50:55.267Z,64.32
2023-07-26T17:53:23.191Z,64.01
2023-07-26T17:55:49.902Z,64.43
2023-07-26T17:58:16.536Z,64.38
2023-07-26T18:00:43.451Z,64.61
2023-07-26T18:03:10.457Z,64.27
2023-07-26T18:05:37.240Z,64.32
2023-07-26T18:08:06.065Z,64.39
2023-07-26T18:10:35.998Z,64.35
2023-07-26T18:13:03.865Z,64.32
2023-07-26T18:15:30.899Z,64.55
2023-07-26T18:17:57.715Z,64.93
2023-07-26T18:20:24.534Z,65.03
2023-07-26T18:22:51.212Z,65.40
2023-07-26T18:25:18.305Z,65.97
2023-07-26T18:27:44.947Z,66.05
2023-07-26T18:30:12.825Z,66.30
2023-07-26T18:32:39.678Z,66.34
2023-07-26T18:35:06.892Z,66.89
2023-07-26T18:37:33.561Z,67.72
2023-07-26T18:40:00.756Z,67.99
2023-07-26T18:42:27.424Z,67.68
2023-07-26T18:44:54.031Z,68.06
2023-07-26T18:47:20.693Z,67.79
2023-07-26T18:49:47.366Z,67.65
2023-07-26T18:52:14.067Z,67.97
2023-07-26T18:54:40.723Z,68.34
2023-07-26T18:57:07.585Z,68.79
2023-07-26T18:59:34.235Z,68.07
2023-07-26T19:02:00.916Z,68.10
2023-07-26T19:04:27.628Z,68.12
2023-07-26T19:06:54.403Z,68.49
2023-07-26T19:09:21.107Z,68.48
2023-07-26T19:11:50.337Z,68.56
2023-07-26T19:14:17.161Z,68.55
2023-07-26T19:16:44.050Z,69.13
2023-07-26T19:19:10.818Z,69.02
2023-07-26T19:21:37.573Z,68.83
2023-07-26T19:24:06.358Z,68.74
2023-07-26T19:26:33.144Z,68.37
2023-07-26T19:29:00.042Z,68.33
2023-07-26T19:31:26.653Z,68.19
2023-07-26T19:33:53.397Z,68.09
2023-07-26T19:36:20.131Z,68.17
2023-07-26T19:38:46.833Z,68.25
2023-07-26T19:41:17.087Z,68.29
2023-07-26T19:43:44.082Z,68.29
2023-07-26T19:46:16.228Z,68.24
2023-07-26T19:48:44.306Z,68.27
2023-07-26T19:51:11.070Z,68.24
2023-07-26T19:53:37.736Z,68.41
2023-07-26T19:56:04.969Z,68.12
2023-07-26T19:58:31.600Z,68.31
2023-07-26T20:00:59.018Z,68.70
2023-07-26T20:03:26.527Z,68.46
2023-07-26T20:05:54.187Z,68.30
2023-07-26T20:08:23.532Z,68.61
2023-07-26T20:10:51.416Z,68.31
2023-07-26T20:13:18.716Z,68.60
2023-07-26T20:15:46.493Z,68.70
2023-07-26T20:18:14.489Z,69.03
2023-07-26T20:20:45.338Z,69.19
2023-07-26T20:23:12.117Z,68.94
2023-07-26T20:25:40.386Z,68.89
2023-07-26T20:28:08.395Z,69.23
2023-07-26T20:30:37.094Z,69.38
2023-07-26T20:33:03.954Z,69.40
2023-07-26T20:35:30.685Z,69.43
2023-07-26T20:37:57.479Z,69.64
2023-07-26T20:40:24.321Z,69.33
2023-07-26T20:42:51.152Z,69.48
2023-07-26T20:45:17.780Z,69.45
2023-07-26T20:47:44.915Z,69.53
2023-07-26T20:50:11.750Z,69.48
2023-07-26T20:52:38.370Z,69.43
2023-07-26T20:55:05.883Z,69.55
2023-07-26T20:57:32.471Z,69.56
2023-07-26T20:59:59.249Z,69.21
2023-07-26T21:02:25.950Z,69.10
2023-07-26T21:04:52.635Z,68.99
2023-07-26T21:07:19.269Z,69.02
2023-07-26T21:09:45.845Z,69.01
2023-07-26T21:12:12.508Z,69.14
2023-07-26T21:14:39.271Z,69.41
2023-07-26T21:17:06.271Z,69.45
2023-07-26T21:19:33.564Z,69.31
2023-07-26T21:22:00.410Z,69.32
2023-07-26T21:24:27.119Z,69.23
2023-07-26T21:26:53.800Z,69.04
2023-07-26T21:29:20.345Z,69.20
2023-07-26T21:31:47.043Z,69.26
2023-07-26T21:34:13.840Z,69.17
2023-07-26T21:36:40.484Z,69.20
2023-07-26T21:39:08.258Z,69.21
2023-07-26T21:41:34.948Z,69.47
2023-07-26T21:44:01.565Z,69.34
2023-07-26T21:46:28.291Z,69.39
2023-07-26T21:48:54.919Z,69.16
2023-07-26T21:51:21.650Z,69.22
2023-07-26T21:53:48.317Z,68.98
2023-07-26T21:56:15.024Z,69.03
2023-07-26T21:58:41.752Z,69.08
2023-07-26T22:01:08.493Z,68.99
2023-07-26T22:03:35.265Z,69.16
2023-07-26T22:06:02.047Z,69.07
2023-07-26T22:08:28.784Z,69.13
2023-07-26T22:11:00.237Z,69.18
2023-07-26T22:13:27.460Z,69.22
2023-07-26T22:15:54.231Z,69.38
2023-07-26T22:18:21.288Z,69.34
2023-07-26T22:21:07.732Z,69.29
2023-07-26T22:23:34.738Z,69.39
2023-07-26T22:26:13.386Z,69.40
2023-07-26T22:28:42.545Z,69.37
2023-07-26T22:31:09.549Z,69.32
2023-07-26T22:33:36.371Z,69.44
2023-07-26T22:36:04.861Z,69.60
2023-07-26T22:38:31.553Z,69.64
2023-07-26T22:40:58.193Z,69.70
2023-07-26T22:43:24.804Z,69.70
2023-07-26T22:45:51.627Z,69.82
2023-07-26T22:48:18.374Z,69.84
2023-07-26T22:50:44.999Z,69.94
2023-07-26T22:53:11.609Z,69.98
2023-07-26T22:55:38.289Z,69.90
2023-07-26T22:58:06.500Z,69.86
2023-07-26T23:00:33.492Z,70.01
2023-07-26T23:03:00.246Z,70.04
2023-07-26T23:05:27.060Z,70.16
2023-07-26T23:07:53.646Z,70.29
2023-07-26T23:10:21.598Z,70.16
2023-07-26T23:12:48.361Z,70.10
2023-07-26T23:15:15.141Z,70.15
2023-07-26T23:17:41.850Z,70.31
2023-07-26T23:20:09.067Z,70.57
2023-07-26T23:22:35.693Z,70.49
2023-07-26T23:25:02.357Z,70.45
2023-07-26T23:27:29.081Z,70.59
2023-07-26T23:29:57.360Z,70.58
2023-07-26T23:32:24.281Z,70.53
2023-07-26T23:34:51.158Z,70.69
2023-07-26T23:37:17.692Z,70.71
2023-07-26T23:39:44.757Z,70.69
2023-07-26T23:42:11.457Z,70.61
2023-07-26T23:44:38.122Z,70.43
2023-07-26T23:47:05.258Z,70.35
2023-07-26T23:49:32.021Z,70.32
2023-07-26T23:51:58.626Z,70.30
2023-07-26T23:54:25.968Z,70.35
2023-07-26T23:56:52.593Z,70.48
2023-07-26T23:59:19.207Z,70.64
